createdAt,value
2023-02-02T00:01:02.224Z,2.85
2023-02-02T00:04:05.509Z,2.67
2023-02-02T00:07:09.204Z,2.78
2023-02-02T05:54:20.615Z,1.30
2023-02-02T05:57:23.807Z,1.20
2023-02-02T06:00:26.711Z,1.48
2023-02-02T06:03:29.835Z,1.30
2023-02-02T06:06:32.577Z,1.75
2023-02-02T06:09:35.695Z,1.15
2023-02-02T06:12:44.791Z,1.35
2023-02-02T06:15:51.712Z,1.33
2023-02-02T06:18:54.530Z,1.20
2023-02-02T06:21:57.764Z,1.50
2023-02-02T06:25:00.592Z,1.20
2023-02-02T06:28:03.760Z,1.20
2023-02-02T06:31:09.106Z,1.10
2023-02-02T06:34:15.534Z,1.52
2023-02-02T06:37:23.311Z,1.33
2023-02-02T06:40:27.808Z,1.45
2023-02-02T06:43:31.578Z,1.30
2023-02-02T06:46:35.091Z,2.92
2023-02-02T06:49:38.201Z,2.62
2023-02-02T06:52:50.695Z,1.40
2023-02-02T06:55:58.594Z,1.50
2023-02-02T06:59:01.833Z,1.40
2023-02-02T07:02:05.249Z,1.45
2023-02-02T07:05:11.165Z,1.10
2023-02-02T07:08:34.292Z,1.30
2023-02-02T07:11:41.178Z,1.15
2023-02-02T07:14:48.778Z,1.10
2023-02-02T07:17:51.967Z,1.25
2023-02-02T07:20:54.874Z,1.30
2023-02-02T07:23:59.625Z,1.40
2023-02-02T07:27:02.753Z,1.20
2023-02-02T07:30:06.364Z,1.20
2023-02-02T07:33:09.336Z,1.20
2023-02-02T07:36:16.426Z,1.00
2023-02-02T07:39:19.515Z,1.08
2023-02-02T07:42:22.697Z,1.30
2023-02-02T07:45:29.591Z,1.27
2023-02-02T07:48:35.531Z,1.12
2023-02-02T09:42:47.583Z,1.73
2023-02-02T09:46:09.645Z,1.15
2023-02-02T09:49:17.514Z,1.45
2023-02-02T09:52:45.569Z,1.17
2023-02-02T09:55:51.626Z,1.33
2023-02-02T09:59:02.140Z,1.30
2023-02-02T10:02:20.903Z,1.40
2023-02-02T10:06:18.952Z,1.50
2023-02-02T10:09:40.915Z,1.20
2023-02-02T10:12:52.088Z,1.33
2023-02-02T10:19:09.880Z,1.83
2023-02-02T10:22:18.297Z,1.35
2023-02-02T10:25:23.375Z,1.42
2023-02-02T10:28:37.404Z,1.40
2023-02-02T10:31:50.008Z,1.15
2023-02-02T10:35:11.046Z,1.33
2023-02-02T10:38:53.109Z,1.20
2023-02-02T10:42:45.562Z,1.77
2023-02-02T10:45:56.283Z,1.45
2023-02-02T10:49:33.300Z,1.30
2023-02-02T10:52:37.327Z,1.20
2023-02-02T10:55:48.144Z,1.55
2023-02-02T10:59:25.845Z,1.20
2023-02-02T11:02:49.898Z,1.00
2023-02-02T11:06:12.229Z,1.33
2023-02-02T11:09:19.062Z,1.45
2023-02-02T11:12:36.959Z,1.90
2023-02-02T11:15:39.792Z,1.50
2023-02-02T11:18:44.425Z,1.35
2023-02-02T11:21:53.602Z,1.30
2023-02-02T11:24:58.508Z,1.10
2023-02-02T11:28:24.861Z,1.30
2023-02-02T11:31:36.038Z,1.20
2023-02-02T11:34:38.949Z,1.25
2023-02-02T11:38:17.609Z,1.23
2023-02-02T11:41:20.758Z,1.10
2023-02-02T14:24:28.322Z,1.65
2023-02-02T14:27:31.400Z,1.65
2023-02-02T14:30:38.575Z,2.12
2023-02-02T14:33:47.614Z,1.80
2023-02-02T14:36:59.696Z,1.98
2023-02-02T14:40:08.833Z,1.35
2023-02-02T14:43:46.287Z,1.27
2023-02-02T14:46:50.765Z,1.70
2023-02-02T14:49:56.864Z,1.95
2023-02-02T14:53:14.953Z,1.62
2023-02-02T14:56:18.372Z,1.60
2023-02-02T14:59:39.946Z,1.60
2023-02-02T15:02:44.014Z,1.73
2023-02-02T15:05:47.594Z,1.70
2023-02-02T15:09:28.475Z,1.35
2023-02-02T15:12:46.878Z,1.55
2023-02-02T15:16:04.861Z,1.17
2023-02-02T15:19:20.736Z,1.85
2023-02-02T15:22:35.528Z,1.90
2023-02-02T15:25:47.301Z,1.40
2023-02-02T15:28:57.240Z,1.50
2023-02-02T15:32:01.409Z,1.62
2023-02-02T15:35:12.147Z,1.98
2023-02-02T15:38:17.696Z,1.92
2023-02-02T15:41:20.958Z,2.45
2023-02-02T15:44:29.877Z,3.42
2023-02-02T15:47:36.441Z,3.03
2023-02-02T15:50:46.492Z,2.58
2023-02-02T15:53:51.861Z,1.80
2023-02-02T15:57:26.752Z,1.85
2023-02-02T16:00:31.598Z,2.75
2023-02-02T16:03:43.965Z,2.00
2023-02-02T16:06:48.242Z,1.75
2023-02-02T16:09:51.619Z,2.10
2023-02-02T16:12:56.285Z,2.22
2023-02-02T16:16:26.325Z,1.70
2023-02-02T16:20:12.551Z,1.95
2023-02-02T16:23:37.340Z,2.08
2023-02-02T16:26:41.345Z,1.60
2023-02-02T16:29:45.404Z,1.95
2023-02-02T16:32:49.576Z,2.10
2023-02-02T16:35:57.021Z,1.62
2023-02-02T16:39:17.246Z,1.70
2023-02-02T16:42:26.776Z,1.52
2023-02-02T16:45:35.828Z,2.15
2023-02-02T16:48:59.860Z,2.10
2023-02-02T16:52:18.238Z,1.87
2023-02-02T16:55:24.395Z,1.90
2023-02-02T16:58:47.420Z,1.73
2023-02-02T17:02:01.518Z,2.00
2023-02-02T17:05:25.598Z,1.67
2023-02-02T17:08:36.618Z,1.58
2023-02-02T17:11:39.669Z,1.83
2023-02-02T17:15:18.532Z,2.28
2023-02-02T17:18:23.198Z,2.42
2023-02-02T17:21:26.306Z,1.73
2023-02-02T17:24:29.736Z,1.98
2023-02-02T17:27:35.280Z,1.85
2023-02-02T17:30:43.457Z,1.55
2023-02-02T17:33:46.609Z,1.52
2023-02-02T17:36:49.528Z,2.35
2023-02-02T17:39:52.587Z,2.45
2023-02-02T17:42:55.326Z,2.55
2023-02-02T17:45:58.911Z,1.83
2023-02-02T17:49:02.225Z,1.90
2023-02-02T17:52:05.525Z,2.20
2023-02-02T17:55:18.068Z,2.37
2023-02-02T17:58:21.339Z,2.72
2023-02-02T18:01:24.256Z,4.03
2023-02-02T18:04:27.444Z,3.95
2023-02-02T18:07:30.371Z,7.40
2023-02-02T18:10:33.621Z,4.15
2023-02-02T18:13:36.626Z,3.53
2023-02-02T18:16:39.709Z,2.72
2023-02-02T18:19:45.163Z,2.90
2023-02-02T18:22:48.725Z,3.00
2023-02-02T18:25:52.957Z,3.62
2023-02-02T18:28:56.254Z,2.78
2023-02-02T18:31:59.598Z,4.40
2023-02-02T18:35:03.260Z,2.72
2023-02-02T18:38:06.243Z,2.25
2023-02-02T18:41:09.594Z,2.30
2023-02-02T18:44:12.369Z,1.90
2023-02-02T18:47:15.538Z,2.17
2023-02-02T18:50:18.701Z,1.87
2023-02-02T18:53:22.199Z,1.85
2023-02-02T18:56:25.246Z,2.20
2023-02-02T18:59:29.126Z,1.42
2023-02-02T19:02:32.109Z,1.75
2023-02-02T19:05:54.096Z,2.00
2023-02-02T19:08:57.018Z,1.62
2023-02-02T19:12:01.929Z,2.55
2023-02-02T19:15:12.865Z,2.45
2023-02-02T19:18:25.300Z,2.90
2023-02-02T19:21:30.815Z,2.62
2023-02-02T19:24:39.427Z,1.60
2023-02-02T19:27:42.652Z,1.23
2023-02-02T19:30:45.941Z,1.90
2023-02-02T19:33:51.281Z,1.60
2023-02-02T19:37:21.184Z,1.58
2023-02-02T19:40:25.520Z,1.98
2023-02-02T19:43:30.472Z,2.53
2023-02-02T19:46:42.444Z,1.98
2023-02-02T19:49:45.794Z,2.00
2023-02-02T19:52:50.289Z,2.37
2023-02-02T19:55:54.207Z,1.70
2023-02-02T19:58:57.278Z,1.67
2023-02-02T20:02:32.526Z,1.90
2023-02-02T20:05:39.689Z,1.98
2023-02-02T20:08:44.324Z,2.40
2023-02-02T20:11:51.531Z,1.98
2023-02-02T20:14:54.722Z,1.87
2023-02-02T20:18:03.585Z,1.83
2023-02-02T20:21:17.409Z,1.33
2023-02-02T20:24:26.113Z,1.85
2023-02-02T20:27:33.399Z,1.60
2023-02-02T20:30:36.822Z,1.70
2023-02-02T20:33:46.453Z,1.92
2023-02-02T20:36:51.829Z,1.30
2023-02-02T20:40:21.142Z,1.60
2023-02-02T20:43:24.415Z,2.33
2023-02-02T20:46:27.658Z,1.90
2023-02-02T20:49:32.011Z,1.70
2023-02-02T20:52:34.926Z,1.90
2023-02-02T20:55:38.183Z,1.48
2023-02-02T20:58:42.291Z,1.77
2023-02-02T21:01:45.744Z,1.80
2023-02-02T21:04:48.949Z,1.55
2023-02-02T21:07:55.001Z,1.85
2023-02-02T21:10:57.902Z,1.50
2023-02-02T21:14:01.551Z,2.20
2023-02-02T21:17:14.425Z,1.75
2023-02-02T21:20:19.692Z,1.80
2023-02-02T21:23:22.898Z,2.33
2023-02-02T21:26:27.915Z,1.73
2023-02-02T21:29:31.847Z,1.90
2023-02-02T21:32:34.562Z,1.83
2023-02-02T21:35:37.590Z,1.98
2023-02-02T21:38:41.220Z,1.98
2023-02-02T21:41:45.034Z,2.53
2023-02-02T21:44:56.377Z,2.10
2023-02-02T21:48:02.567Z,1.98
2023-02-02T21:51:29.950Z,1.90
2023-02-02T21:54:37.499Z,2.28
2023-02-02T21:57:42.177Z,1.95
2023-02-02T22:00:46.270Z,2.40
2023-02-02T22:03:49.948Z,1.90
2023-02-02T22:07:00.965Z,1.87
2023-02-02T22:10:25.249Z,2.20
2023-02-02T22:13:34.800Z,1.80
2023-02-02T22:16:45.894Z,2.20
2023-02-02T22:19:51.278Z,2.20
2023-02-02T22:22:54.503Z,2.10
2023-02-02T22:25:59.001Z,2.17
2023-02-02T22:29:07.183Z,2.03
2023-02-02T22:32:09.984Z,2.03
2023-02-02T22:35:13.142Z,2.15
2023-02-02T22:38:18.374Z,1.80
2023-02-02T22:41:21.504Z,2.28
2023-02-02T22:44:24.260Z,2.47
2023-02-02T22:47:27.410Z,2.37
2023-02-02T22:50:31.656Z,2.28
2023-02-02T22:53:34.771Z,1.95
2023-02-02T22:56:37.416Z,2.37
2023-02-02T22:59:40.903Z,2.25
2023-02-02T23:02:44.167Z,2.40
2023-02-02T23:05:47.270Z,1.95
2023-02-02T23:08:50.138Z,2.10
2023-02-02T23:11:53.189Z,1.55
2023-02-02T23:14:55.999Z,1.83
2023-02-02T23:17:59.761Z,2.20
2023-02-02T23:21:02.529Z,1.52
2023-02-02T23:24:05.947Z,2.25
2023-02-02T23:27:08.675Z,2.00
2023-02-02T23:30:13.552Z,1.65
2023-02-02T23:33:16.308Z,2.30
2023-02-02T23:36:19.332Z,1.58
2023-02-02T23:39:22.239Z,1.83
2023-02-02T23:42:25.977Z,2.25
2023-02-02T23:45:28.732Z,2.10
2023-02-02T23:48:31.770Z,2.20
2023-02-02T23:51:34.883Z,2.30
2023-02-02T23:54:38.086Z,2.20
2023-02-02T23:57:40.830Z,2.20
